South Broadway, Washington
Current Conditions -  °F | °C
As of 8:53 AM on Thursday 27 Nov 2014 (Local Time) from KYKM Reporting Station
Clear Clear  
Wind Chill: 58°   Ceiling: Unl
Heat Index: 58°   Visibility: 10mi
Dew Point: 43°   Wind: 21mph
Humidity: 58%   Direction: 190°S
Pressure: 29.85"   Gusts: 29mph
Location:  46.562°N, 120.899°W
Report Text: KYKM 271653Z 19018G25KT 10SM CLR 14/06 A2985 RMK AO2 SLP112 T01440061
Loading
Personal Weather Stations






























Interactive Weather Map New forecast layout! Learn more

10-Day Weather Forecast

Advertisements
Track Severe Weather on mobile